sensor_id;sensor_type;location;lat;lon;timestamp;P1;durP1;ratioP1;P2;durP2;ratioP2
18274;SDS011;19470;49.322;7.218;2022-08-19T00:00:47;41.20;;;31.73;;
18274;SDS011;19470;49.322;7.218;2022-08-19T00:03:15;40.15;;;31.02;;
18274;SDS011;19470;49.322;7.218;2022-08-19T00:05:43;47.15;;;33.50;;
18274;SDS011;19470;49.322;7.218;2022-08-19T00:08:10;49.05;;;33.47;;
18274;SDS011;19470;49.322;7.218;2022-08-19T00:10:36;49.38;;;34.35;;
18274;SDS011;19470;49.322;7.218;2022-08-19T00:13:03;47.20;;;33.58;;
18274;SDS011;19470;49.322;7.218;2022-08-19T00:15:29;52.88;;;35.72;;
18274;SDS011;19470;49.322;7.218;2022-08-19T00:17:56;44.60;;;32.85;;
18274;SDS011;19470;49.322;7.218;2022-08-19T00:20:22;43.85;;;32.67;;
18274;SDS011;19470;49.322;7.218;2022-08-19T00:22:50;40.17;;;31.85;;
18274;SDS011;19470;49.322;7.218;2022-08-19T00:25:17;42.60;;;30.48;;
18274;SDS011;19470;49.322;7.218;2022-08-19T00:27:44;40.55;;;29.00;;
18274;SDS011;19470;49.322;7.218;2022-08-19T00:30:11;41.55;;;29.77;;
18274;SDS011;19470;49.322;7.218;2022-08-19T00:32:37;40.95;;;29.73;;
18274;SDS011;19470;49.322;7.218;2022-08-19T00:35:05;41.03;;;30.42;;
18274;SDS011;19470;49.322;7.218;2022-08-19T00:37:33;44.25;;;32.38;;
18274;SDS011;19470;49.322;7.218;2022-08-19T00:40:01;41.30;;;31.70;;
18274;SDS011;19470;49.322;7.218;2022-08-19T00:42:31;44.90;;;32.13;;
18274;SDS011;19470;49.322;7.218;2022-08-19T00:44:58;46.70;;;32.47;;
18274;SDS011;19470;49.322;7.218;2022-08-19T00:47:25;49.97;;;33.63;;
18274;SDS011;19470;49.322;7.218;2022-08-19T00:49:52;53.30;;;34.58;;
18274;SDS011;19470;49.322;7.218;2022-08-19T00:52:22;49.45;;;35.90;;
18274;SDS011;19470;49.322;7.218;2022-08-19T00:54:52;46.83;;;32.67;;
18274;SDS011;19470;49.322;7.218;2022-08-19T00:57:22;41.50;;;30.60;;
18274;SDS011;19470;49.322;7.218;2022-08-19T00:59:53;39.67;;;29.98;;
18274;SDS011;19470;49.322;7.218;2022-08-19T01:02:22;41.97;;;30.88;;
18274;SDS011;19470;49.322;7.218;2022-08-19T01:04:48;47.38;;;31.73;;
18274;SDS011;19470;49.322;7.218;2022-08-19T01:07:15;39.22;;;30.33;;
18274;SDS011;19470;49.322;7.218;2022-08-19T01:09:41;43.22;;;32.10;;
18274;SDS011;19470;49.322;7.218;2022-08-19T01:12:08;41.25;;;31.48;;
18274;SDS011;19470;49.322;7.218;2022-08-19T01:14:36;41.72;;;31.92;;
18274;SDS011;19470;49.322;7.218;2022-08-19T01:17:05;37.80;;;29.15;;
18274;SDS011;19470;49.322;7.218;2022-08-19T01:19:33;37.30;;;28.58;;
18274;SDS011;19470;49.322;7.218;2022-08-19T01:22:05;35.15;;;26.60;;
18274;SDS011;19470;49.322;7.218;2022-08-19T01:24:39;37.65;;;27.42;;
18274;SDS011;19470;49.322;7.218;2022-08-19T01:27:07;34.92;;;27.52;;
18274;SDS011;19470;49.322;7.218;2022-08-19T01:29:36;32.33;;;26.48;;
18274;SDS011;19470;49.322;7.218;2022-08-19T01:32:04;42.53;;;28.20;;
18274;SDS011;19470;49.322;7.218;2022-08-19T01:34:31;34.55;;;26.83;;
18274;SDS011;19470;49.322;7.218;2022-08-19T01:36:59;33.17;;;27.33;;
18274;SDS011;19470;49.322;7.218;2022-08-19T01:39:32;36.22;;;27.38;;
18274;SDS011;19470;49.322;7.218;2022-08-19T01:42:00;33.92;;;26.65;;
18274;SDS011;19470;49.322;7.218;2022-08-19T01:44:28;36.92;;;27.75;;
18274;SDS011;19470;49.322;7.218;2022-08-19T01:46:54;35.03;;;27.58;;
18274;SDS011;19470;49.322;7.218;2022-08-19T01:49:21;35.35;;;28.67;;
18274;SDS011;19470;49.322;7.218;2022-08-19T01:51:51;37.25;;;28.50;;
18274;SDS011;19470;49.322;7.218;2022-08-19T01:54:21;37.65;;;27.95;;
18274;SDS011;19470;49.322;7.218;2022-08-19T01:56:49;36.83;;;28.02;;
18274;SDS011;19470;49.322;7.218;2022-08-19T01:59:18;38.15;;;27.83;;
18274;SDS011;19470;49.322;7.218;2022-08-19T02:01:48;38.63;;;27.63;;
18274;SDS011;19470;49.322;7.218;2022-08-19T02:04:15;39.05;;;27.80;;
18274;SDS011;19470;49.322;7.218;2022-08-19T02:06:41;36.45;;;26.33;;
18274;SDS011;19470;49.322;7.218;2022-08-19T02:09:08;38.45;;;26.58;;
18274;SDS011;19470;49.322;7.218;2022-08-19T02:11:35;32.17;;;26.33;;
18274;SDS011;19470;49.322;7.218;2022-08-19T02:14:04;31.00;;;25.20;;
18274;SDS011;19470;49.322;7.218;2022-08-19T02:16:34;31.98;;;25.70;;
18274;SDS011;19470;49.322;7.218;2022-08-19T02:19:01;32.88;;;25.35;;
18274;SDS011;19470;49.322;7.218;2022-08-19T02:21:28;32.83;;;26.02;;
18274;SDS011;19470;49.322;7.218;2022-08-19T02:23:56;33.65;;;25.85;;
18274;SDS011;19470;49.322;7.218;2022-08-19T02:26:23;37.25;;;25.92;;
18274;SDS011;19470;49.322;7.218;2022-08-19T02:28:51;34.03;;;26.42;;
18274;SDS011;19470;49.322;7.218;2022-08-19T02:31:19;31.48;;;25.60;;
18274;SDS011;19470;49.322;7.218;2022-08-19T02:33:49;35.03;;;27.75;;
18274;SDS011;19470;49.322;7.218;2022-08-19T02:36:17;33.83;;;26.83;;
18274;SDS011;19470;49.322;7.218;2022-08-19T02:38:44;37.33;;;30.05;;
18274;SDS011;19470;49.322;7.218;2022-08-19T02:41:11;107.70;;;79.10;;
18274;SDS011;19470;49.322;7.218;2022-08-19T02:43:39;34.60;;;27.77;;
18274;SDS011;19470;49.322;7.218;2022-08-19T02:46:11;33.03;;;25.10;;
18274;SDS011;19470;49.322;7.218;2022-08-19T02:48:38;34.97;;;25.52;;
18274;SDS011;19470;49.322;7.218;2022-08-19T02:51:06;40.45;;;27.42;;
18274;SDS011;19470;49.322;7.218;2022-08-19T02:53:33;37.10;;;28.63;;
18274;SDS011;19470;49.322;7.218;2022-08-19T02:55:59;34.20;;;26.90;;
18274;SDS011;19470;49.322;7.218;2022-08-19T02:58:26;37.20;;;27.95;;
18274;SDS011;19470;49.322;7.218;2022-08-19T03:00:54;33.00;;;25.52;;
18274;SDS011;19470;49.322;7.218;2022-08-19T03:03:21;33.35;;;25.77;;
18274;SDS011;19470;49.322;7.218;2022-08-19T03:05:48;34.15;;;26.20;;
18274;SDS011;19470;49.322;7.218;2022-08-19T03:08:16;34.50;;;26.77;;
18274;SDS011;19470;49.322;7.218;2022-08-19T03:10:43;32.25;;;25.30;;
18274;SDS011;19470;49.322;7.218;2022-08-19T03:13:12;30.67;;;23.95;;
18274;SDS011;19470;49.322;7.218;2022-08-19T03:15:41;32.80;;;25.58;;
18274;SDS011;19470;49.322;7.218;2022-08-19T03:18:08;30.73;;;25.20;;
18274;SDS011;19470;49.322;7.218;2022-08-19T03:20:39;32.67;;;25.48;;
18274;SDS011;19470;49.322;7.218;2022-08-19T03:23:06;31.38;;;25.20;;
18274;SDS011;19470;49.322;7.218;2022-08-19T03:25:37;34.63;;;26.67;;
18274;SDS011;19470;49.322;7.218;2022-08-19T03:28:05;31.42;;;25.35;;
18274;SDS011;19470;49.322;7.218;2022-08-19T03:30:32;31.10;;;25.55;;
18274;SDS011;19470;49.322;7.218;2022-08-19T03:32:59;33.30;;;25.05;;
18274;SDS011;19470;49.322;7.218;2022-08-19T03:35:26;35.00;;;25.85;;
18274;SDS011;19470;49.322;7.218;2022-08-19T03:37:53;32.75;;;24.40;;
18274;SDS011;19470;49.322;7.218;2022-08-19T03:40:21;31.38;;;24.92;;
18274;SDS011;19470;49.322;7.218;2022-08-19T03:42:49;29.80;;;24.30;;
18274;SDS011;19470;49.322;7.218;2022-08-19T03:45:15;26.60;;;22.10;;
18274;SDS011;19470;49.322;7.218;2022-08-19T03:47:42;30.98;;;22.02;;
18274;SDS011;19470;49.322;7.218;2022-08-19T03:50:08;58.35;;;43.83;;
18274;SDS011;19470;49.322;7.218;2022-08-19T03:52:35;34.97;;;23.83;;
18274;SDS011;19470;49.322;7.218;2022-08-19T03:55:02;29.95;;;24.67;;
18274;SDS011;19470;49.322;7.218;2022-08-19T03:57:29;32.22;;;24.92;;
18274;SDS011;19470;49.322;7.218;2022-08-19T03:59:58;34.42;;;26.67;;
18274;SDS011;19470;49.322;7.218;2022-08-19T04:02:25;35.03;;;26.17;;
18274;SDS011;19470;49.322;7.218;2022-08-19T04:04:53;32.10;;;25.15;;
18274;SDS011;19470;49.322;7.218;2022-08-19T04:07:20;30.90;;;23.63;;
18274;SDS011;19470;49.322;7.218;2022-08-19T04:09:46;29.00;;;23.67;;
18274;SDS011;19470;49.322;7.218;2022-08-19T04:12:14;27.10;;;22.77;;
18274;SDS011;19470;49.322;7.218;2022-08-19T04:14:40;31.23;;;23.63;;
18274;SDS011;19470;49.322;7.218;2022-08-19T04:17:08;42.67;;;32.50;;
18274;SDS011;19470;49.322;7.218;2022-08-19T04:19:35;36.72;;;25.67;;
18274;SDS011;19470;49.322;7.218;2022-08-19T04:22:03;32.83;;;24.35;;
18274;SDS011;19470;49.322;7.218;2022-08-19T04:24:31;29.50;;;23.38;;
18274;SDS011;19470;49.322;7.218;2022-08-19T04:26:58;25.08;;;20.20;;
18274;SDS011;19470;49.322;7.218;2022-08-19T04:29:25;26.17;;;20.88;;
18274;SDS011;19470;49.322;7.218;2022-08-19T04:31:52;23.98;;;20.83;;
18274;SDS011;19470;49.322;7.218;2022-08-19T04:34:23;27.73;;;22.48;;
18274;SDS011;19470;49.322;7.218;2022-08-19T04:36:52;25.00;;;20.00;;
18274;SDS011;19470;49.322;7.218;2022-08-19T04:39:20;29.63;;;21.75;;
18274;SDS011;19470;49.322;7.218;2022-08-19T04:42:11;31.60;;;25.30;;
18274;SDS011;19470;49.322;7.218;2022-08-19T04:44:55;28.67;;;21.23;;
18274;SDS011;19470;49.322;7.218;2022-08-19T04:47:23;24.77;;;20.45;;
18274;SDS011;19470;49.322;7.218;2022-08-19T04:49:51;27.88;;;21.70;;
18274;SDS011;19470;49.322;7.218;2022-08-19T04:52:18;24.90;;;21.23;;
18274;SDS011;19470;49.322;7.218;2022-08-19T04:54:44;24.77;;;20.30;;
18274;SDS011;19470;49.322;7.218;2022-08-19T04:57:11;23.40;;;19.83;;
18274;SDS011;19470;49.322;7.218;2022-08-19T04:59:38;29.48;;;20.45;;
18274;SDS011;19470;49.322;7.218;2022-08-19T05:02:06;26.80;;;20.75;;
18274;SDS011;19470;49.322;7.218;2022-08-19T05:04:34;24.02;;;20.92;;
18274;SDS011;19470;49.322;7.218;2022-08-19T05:07:05;174.15;;;125.15;;
18274;SDS011;19470;49.322;7.218;2022-08-19T05:09:32;54.10;;;43.10;;
18274;SDS011;19470;49.322;7.218;2022-08-19T05:11:59;25.77;;;20.50;;
18274;SDS011;19470;49.322;7.218;2022-08-19T05:14:26;22.95;;;20.27;;
18274;SDS011;19470;49.322;7.218;2022-08-19T05:16:53;25.00;;;19.02;;
18274;SDS011;19470;49.322;7.218;2022-08-19T05:19:20;24.70;;;20.50;;
18274;SDS011;19470;49.322;7.218;2022-08-19T05:22:05;25.77;;;21.33;;
18274;SDS011;19470;49.322;7.218;2022-08-19T05:24:49;30.40;;;22.73;;
18274;SDS011;19470;49.322;7.218;2022-08-19T05:27:16;26.70;;;20.70;;
18274;SDS011;19470;49.322;7.218;2022-08-19T05:29:42;24.42;;;20.70;;
18274;SDS011;19470;49.322;7.218;2022-08-19T05:32:09;64.65;;;50.38;;
18274;SDS011;19470;49.322;7.218;2022-08-19T05:34:35;40.95;;;33.80;;
18274;SDS011;19470;49.322;7.218;2022-08-19T05:37:04;27.83;;;23.95;;
18274;SDS011;19470;49.322;7.218;2022-08-19T05:39:33;20.60;;;18.05;;
18274;SDS011;19470;49.322;7.218;2022-08-19T05:42:02;24.38;;;18.83;;
18274;SDS011;19470;49.322;7.218;2022-08-19T05:44:31;21.40;;;18.35;;
18274;SDS011;19470;49.322;7.218;2022-08-19T05:47:02;20.33;;;18.13;;
18274;SDS011;19470;49.322;7.218;2022-08-19T05:49:30;25.77;;;18.45;;
18274;SDS011;19470;49.322;7.218;2022-08-19T05:51:57;24.75;;;20.13;;
18274;SDS011;19470;49.322;7.218;2022-08-19T05:54:25;25.40;;;20.17;;
18274;SDS011;19470;49.322;7.218;2022-08-19T05:56:52;21.02;;;17.77;;
18274;SDS011;19470;49.322;7.218;2022-08-19T05:59:20;18.35;;;16.27;;
18274;SDS011;19470;49.322;7.218;2022-08-19T06:01:48;18.27;;;16.38;;
18274;SDS011;19470;49.322;7.218;2022-08-19T06:04:16;21.80;;;17.33;;
18274;SDS011;19470;49.322;7.218;2022-08-19T06:06:44;22.77;;;16.95;;
18274;SDS011;19470;49.322;7.218;2022-08-19T06:09:11;19.35;;;17.25;;
18274;SDS011;19470;49.322;7.218;2022-08-19T06:11:41;19.50;;;17.35;;
18274;SDS011;19470;49.322;7.218;2022-08-19T06:14:10;20.58;;;16.98;;
18274;SDS011;19470;49.322;7.218;2022-08-19T06:16:39;21.45;;;18.17;;
18274;SDS011;19470;49.322;7.218;2022-08-19T06:19:07;22.38;;;18.73;;
18274;SDS011;19470;49.322;7.218;2022-08-19T06:21:36;23.38;;;18.70;;
18274;SDS011;19470;49.322;7.218;2022-08-19T06:24:05;22.63;;;18.02;;
18274;SDS011;19470;49.322;7.218;2022-08-19T06:26:34;24.65;;;20.50;;
18274;SDS011;19470;49.322;7.218;2022-08-19T06:29:03;22.40;;;19.08;;
18274;SDS011;19470;49.322;7.218;2022-08-19T06:31:32;20.88;;;18.00;;
18274;SDS011;19470;49.322;7.218;2022-08-19T06:34:01;20.98;;;18.40;;
18274;SDS011;19470;49.322;7.218;2022-08-19T06:36:29;22.35;;;18.10;;
18274;SDS011;19470;49.322;7.218;2022-08-19T06:38:59;23.20;;;18.05;;
18274;SDS011;19470;49.322;7.218;2022-08-19T06:41:26;20.75;;;18.38;;
18274;SDS011;19470;49.322;7.218;2022-08-19T06:43:54;20.27;;;17.27;;
18274;SDS011;19470;49.322;7.218;2022-08-19T06:46:22;21.05;;;16.70;;
18274;SDS011;19470;49.322;7.218;2022-08-19T06:48:49;19.27;;;17.27;;
18274;SDS011;19470;49.322;7.218;2022-08-19T06:51:18;26.45;;;19.65;;
18274;SDS011;19470;49.322;7.218;2022-08-19T06:53:45;19.63;;;17.50;;
18274;SDS011;19470;49.322;7.218;2022-08-19T06:56:12;22.23;;;17.42;;
18274;SDS011;19470;49.322;7.218;2022-08-19T06:58:39;19.30;;;17.30;;
18274;SDS011;19470;49.322;7.218;2022-08-19T07:01:06;20.50;;;17.77;;
18274;SDS011;19470;49.322;7.218;2022-08-19T07:03:35;19.73;;;17.60;;
18274;SDS011;19470;49.322;7.218;2022-08-19T07:06:03;21.92;;;18.95;;
18274;SDS011;19470;49.322;7.218;2022-08-19T07:08:31;21.27;;;17.95;;
18274;SDS011;19470;49.322;7.218;2022-08-19T07:10:58;22.85;;;19.30;;
18274;SDS011;19470;49.322;7.218;2022-08-19T07:13:25;25.38;;;18.30;;
18274;SDS011;19470;49.322;7.218;2022-08-19T07:15:52;20.88;;;18.45;;
18274;SDS011;19470;49.322;7.218;2022-08-19T07:18:18;18.80;;;16.67;;
18274;SDS011;19470;49.322;7.218;2022-08-19T07:20:47;21.75;;;17.55;;
18274;SDS011;19470;49.322;7.218;2022-08-19T07:23:14;21.10;;;17.83;;
18274;SDS011;19470;49.322;7.218;2022-08-19T07:25:40;21.80;;;17.08;;
18274;SDS011;19470;49.322;7.218;2022-08-19T07:28:07;22.92;;;16.30;;
18274;SDS011;19470;49.322;7.218;2022-08-19T07:30:35;18.75;;;16.20;;
18274;SDS011;19470;49.322;7.218;2022-08-19T07:33:03;17.77;;;15.85;;
18274;SDS011;19470;49.322;7.218;2022-08-19T07:35:30;17.75;;;15.23;;
18274;SDS011;19470;49.322;7.218;2022-08-19T07:37:59;17.33;;;13.60;;
18274;SDS011;19470;49.322;7.218;2022-08-19T07:40:27;17.60;;;13.35;;
18274;SDS011;19470;49.322;7.218;2022-08-19T07:42:54;18.35;;;13.07;;
18274;SDS011;19470;49.322;7.218;2022-08-19T07:45:20;17.70;;;13.32;;
18274;SDS011;19470;49.322;7.218;2022-08-19T07:47:47;15.02;;;13.40;;
18274;SDS011;19470;49.322;7.218;2022-08-19T07:50:13;15.38;;;13.75;;
18274;SDS011;19470;49.322;7.218;2022-08-19T07:52:40;16.50;;;12.88;;
18274;SDS011;19470;49.322;7.218;2022-08-19T07:55:10;19.15;;;14.00;;
18274;SDS011;19470;49.322;7.218;2022-08-19T07:57:37;17.83;;;15.98;;
18274;SDS011;19470;49.322;7.218;2022-08-19T08:00:05;21.77;;;16.65;;
18274;SDS011;19470;49.322;7.218;2022-08-19T08:02:32;18.30;;;14.88;;
18274;SDS011;19470;49.322;7.218;2022-08-19T08:04:59;17.45;;;15.60;;
18274;SDS011;19470;49.322;7.218;2022-08-19T08:07:43;19.15;;;15.35;;
18274;SDS011;19470;49.322;7.218;2022-08-19T08:10:28;21.52;;;15.40;;
18274;SDS011;19470;49.322;7.218;2022-08-19T08:12:55;16.63;;;14.13;;
18274;SDS011;19470;49.322;7.218;2022-08-19T08:15:21;17.77;;;14.98;;
18274;SDS011;19470;49.322;7.218;2022-08-19T08:17:48;16.02;;;13.65;;
18274;SDS011;19470;49.322;7.218;2022-08-19T08:20:14;15.80;;;13.80;;
18274;SDS011;19470;49.322;7.218;2022-08-19T08:22:42;15.18;;;13.27;;
18274;SDS011;19470;49.322;7.218;2022-08-19T08:25:29;16.52;;;13.70;;
18274;SDS011;19470;49.322;7.218;2022-08-19T08:27:56;19.27;;;14.05;;
18274;SDS011;19470;49.322;7.218;2022-08-19T08:30:24;16.38;;;13.40;;
18274;SDS011;19470;49.322;7.218;2022-08-19T08:32:52;14.85;;;12.43;;
18274;SDS011;19470;49.322;7.218;2022-08-19T08:35:20;12.43;;;11.23;;
18274;SDS011;19470;49.322;7.218;2022-08-19T08:37:49;13.15;;;11.75;;
18274;SDS011;19470;49.322;7.218;2022-08-19T08:40:18;14.30;;;11.32;;
18274;SDS011;19470;49.322;7.218;2022-08-19T08:42:50;12.32;;;10.23;;
18274;SDS011;19470;49.322;7.218;2022-08-19T08:45:25;12.45;;;10.55;;
18274;SDS011;19470;49.322;7.218;2022-08-19T08:47:53;12.15;;;9.77;;
18274;SDS011;19470;49.322;7.218;2022-08-19T08:50:26;10.32;;;8.85;;
18274;SDS011;19470;49.322;7.218;2022-08-19T08:52:57;14.00;;;8.80;;
18274;SDS011;19470;49.322;7.218;2022-08-19T08:55:25;9.45;;;8.55;;
18274;SDS011;19470;49.322;7.218;2022-08-19T08:57:55;8.43;;;7.40;;
18274;SDS011;19470;49.322;7.218;2022-08-19T09:00:28;10.23;;;8.55;;
18274;SDS011;19470;49.322;7.218;2022-08-19T09:02:58;7.82;;;7.03;;
18274;SDS011;19470;49.322;7.218;2022-08-19T09:05:38;8.68;;;7.78;;
18274;SDS011;19470;49.322;7.218;2022-08-19T09:08:13;9.25;;;6.57;;
18274;SDS011;19470;49.322;7.218;2022-08-19T09:10:49;9.35;;;6.75;;
18274;SDS011;19470;49.322;7.218;2022-08-19T09:16:09;7.45;;;6.75;;
18274;SDS011;19470;49.322;7.218;2022-08-19T09:18:39;9.07;;;6.88;;
18274;SDS011;19470;49.322;7.218;2022-08-19T09:21:08;8.52;;;5.85;;
18274;SDS011;19470;49.322;7.218;2022-08-19T09:23:34;6.40;;;5.80;;
18274;SDS011;19470;49.322;7.218;2022-08-19T09:26:04;6.88;;;5.85;;
18274;SDS011;19470;49.322;7.218;2022-08-19T09:28:33;7.78;;;5.82;;
18274;SDS011;19470;49.322;7.218;2022-08-19T09:31:01;8.68;;;5.70;;
18274;SDS011;19470;49.322;7.218;2022-08-19T09:33:27;7.78;;;5.68;;
18274;SDS011;19470;49.322;7.218;2022-08-19T09:36:01;7.93;;;6.00;;
18274;SDS011;19470;49.322;7.218;2022-08-19T09:38:29;9.52;;;5.95;;
18274;SDS011;19470;49.322;7.218;2022-08-19T09:40:55;8.57;;;5.82;;
18274;SDS011;19470;49.322;7.218;2022-08-19T09:43:22;6.20;;;5.60;;
18274;SDS011;19470;49.322;7.218;2022-08-19T09:45:51;7.72;;;5.57;;
18274;SDS011;19470;49.322;7.218;2022-08-19T09:48:19;10.95;;;6.00;;
18274;SDS011;19470;49.322;7.218;2022-08-19T09:50:46;7.22;;;6.05;;
18274;SDS011;19470;49.322;7.218;2022-08-19T09:53:12;6.88;;;5.28;;
18274;SDS011;19470;49.322;7.218;2022-08-19T09:55:41;5.57;;;5.07;;
18274;SDS011;19470;49.322;7.218;2022-08-19T09:58:08;8.25;;;4.72;;
18274;SDS011;19470;49.322;7.218;2022-08-19T10:00:36;5.30;;;4.80;;
18274;SDS011;19470;49.322;7.218;2022-08-19T10:03:03;7.15;;;4.55;;
18274;SDS011;19470;49.322;7.218;2022-08-19T10:05:31;4.70;;;4.30;;
18274;SDS011;19470;49.322;7.218;2022-08-19T10:08:17;7.45;;;5.20;;
18274;SDS011;19470;49.322;7.218;2022-08-19T10:10:44;6.20;;;5.43;;
18274;SDS011;19470;49.322;7.218;2022-08-19T10:13:12;6.68;;;4.90;;
18274;SDS011;19470;49.322;7.218;2022-08-19T10:15:40;21.33;;;16.55;;
18274;SDS011;19470;49.322;7.218;2022-08-19T10:18:07;7.25;;;5.30;;
18274;SDS011;19470;49.322;7.218;2022-08-19T10:20:35;10.85;;;4.80;;
18274;SDS011;19470;49.322;7.218;2022-08-19T10:23:02;4.13;;;3.70;;
18274;SDS011;19470;49.322;7.218;2022-08-19T10:25:28;4.97;;;4.15;;
18274;SDS011;19470;49.322;7.218;2022-08-19T10:27:55;5.30;;;3.95;;
18274;SDS011;19470;49.322;7.218;2022-08-19T10:30:21;4.38;;;3.97;;
18274;SDS011;19470;49.322;7.218;2022-08-19T10:32:48;4.63;;;4.07;;
18274;SDS011;19470;49.322;7.218;2022-08-19T10:35:14;5.85;;;3.40;;
18274;SDS011;19470;49.322;7.218;2022-08-19T10:37:43;4.03;;;3.60;;
18274;SDS011;19470;49.322;7.218;2022-08-19T10:40:10;4.75;;;3.90;;
18274;SDS011;19470;49.322;7.218;2022-08-19T10:42:37;7.57;;;4.18;;
18274;SDS011;19470;49.322;7.218;2022-08-19T10:45:04;6.85;;;4.50;;
18274;SDS011;19470;49.322;7.218;2022-08-19T10:47:32;6.82;;;4.05;;
18274;SDS011;19470;49.322;7.218;2022-08-19T10:49:58;8.18;;;4.25;;
18274;SDS011;19470;49.322;7.218;2022-08-19T10:52:44;4.90;;;3.67;;
18274;SDS011;19470;49.322;7.218;2022-08-19T10:55:13;5.50;;;4.40;;
18274;SDS011;19470;49.322;7.218;2022-08-19T10:57:57;3.90;;;3.58;;
18274;SDS011;19470;49.322;7.218;2022-08-19T11:00:24;4.40;;;4.00;;
18274;SDS011;19470;49.322;7.218;2022-08-19T11:02:51;4.07;;;3.67;;
18274;SDS011;19470;49.322;7.218;2022-08-19T11:05:18;4.38;;;3.70;;
18274;SDS011;19470;49.322;7.218;2022-08-19T11:07:46;5.45;;;3.50;;
18274;SDS011;19470;49.322;7.218;2022-08-19T11:10:15;4.00;;;3.40;;
18274;SDS011;19470;49.322;7.218;2022-08-19T11:12:44;4.55;;;3.53;;
18274;SDS011;19470;49.322;7.218;2022-08-19T11:15:11;4.38;;;3.70;;
18274;SDS011;19470;49.322;7.218;2022-08-19T11:17:38;3.85;;;3.53;;
18274;SDS011;19470;49.322;7.218;2022-08-19T11:20:08;5.55;;;3.78;;
18274;SDS011;19470;49.322;7.218;2022-08-19T11:22:36;4.68;;;3.85;;
18274;SDS011;19470;49.322;7.218;2022-08-19T11:25:04;5.38;;;3.58;;
18274;SDS011;19470;49.322;7.218;2022-08-19T11:27:31;6.78;;;3.28;;
18274;SDS011;19470;49.322;7.218;2022-08-19T11:29:58;4.30;;;3.28;;
18274;SDS011;19470;49.322;7.218;2022-08-19T11:32:25;6.25;;;3.72;;
18274;SDS011;19470;49.322;7.218;2022-08-19T11:34:52;6.85;;;4.00;;
18274;SDS011;19470;49.322;7.218;2022-08-19T11:37:19;4.60;;;4.20;;
18274;SDS011;19470;49.322;7.218;2022-08-19T11:39:45;4.45;;;4.05;;
18274;SDS011;19470;49.322;7.218;2022-08-19T11:42:13;25.73;;;20.50;;
18274;SDS011;19470;49.322;7.218;2022-08-19T11:44:57;5.45;;;4.07;;
18274;SDS011;19470;49.322;7.218;2022-08-19T11:47:24;3.72;;;3.35;;
18274;SDS011;19470;49.322;7.218;2022-08-19T11:49:51;3.90;;;3.50;;
18274;SDS011;19470;49.322;7.218;2022-08-19T11:52:18;4.32;;;3.92;;
18274;SDS011;19470;49.322;7.218;2022-08-19T11:54:44;5.32;;;3.40;;
18274;SDS011;19470;49.322;7.218;2022-08-19T11:57:11;4.20;;;3.25;;
18274;SDS011;19470;49.322;7.218;2022-08-19T11:59:41;4.75;;;4.20;;
18274;SDS011;19470;49.322;7.218;2022-08-19T12:02:08;6.85;;;3.97;;
18274;SDS011;19470;49.322;7.218;2022-08-19T12:04:35;5.28;;;4.38;;
18274;SDS011;19470;49.322;7.218;2022-08-19T12:07:02;5.55;;;3.50;;
18274;SDS011;19470;49.322;7.218;2022-08-19T12:09:29;4.55;;;3.78;;
18274;SDS011;19470;49.322;7.218;2022-08-19T12:11:56;3.10;;;2.80;;
18274;SDS011;19470;49.322;7.218;2022-08-19T12:14:23;5.22;;;3.00;;
18274;SDS011;19470;49.322;7.218;2022-08-19T12:16:51;3.08;;;2.75;;
18274;SDS011;19470;49.322;7.218;2022-08-19T12:19:17;4.50;;;3.00;;
18274;SDS011;19470;49.322;7.218;2022-08-19T12:21:44;3.25;;;2.67;;
18274;SDS011;19470;49.322;7.218;2022-08-19T12:24:10;3.30;;;3.00;;
18274;SDS011;19470;49.322;7.218;2022-08-19T12:26:37;4.45;;;3.25;;
18274;SDS011;19470;49.322;7.218;2022-08-19T12:29:03;4.22;;;3.45;;
18274;SDS011;19470;49.322;7.218;2022-08-19T12:31:30;8.85;;;3.15;;
18274;SDS011;19470;49.322;7.218;2022-08-19T12:33:58;5.28;;;3.63;;
18274;SDS011;19470;49.322;7.218;2022-08-19T12:36:27;4.07;;;3.63;;
18274;SDS011;19470;49.322;7.218;2022-08-19T12:38:54;4.05;;;3.65;;
18274;SDS011;19470;49.322;7.218;2022-08-19T12:41:20;4.32;;;3.92;;
18274;SDS011;19470;49.322;7.218;2022-08-19T12:43:47;5.07;;;4.30;;
18274;SDS011;19470;49.322;7.218;2022-08-19T12:46:15;5.10;;;4.65;;
18274;SDS011;19470;49.322;7.218;2022-08-19T12:48:41;4.80;;;4.35;;
18274;SDS011;19470;49.322;7.218;2022-08-19T12:51:12;5.03;;;4.60;;
18274;SDS011;19470;49.322;7.218;2022-08-19T12:53:40;6.35;;;5.00;;
18274;SDS011;19470;49.322;7.218;2022-08-19T12:56:07;6.60;;;4.75;;
18274;SDS011;19470;49.322;7.218;2022-08-19T12:58:34;6.28;;;4.80;;
18274;SDS011;19470;49.322;7.218;2022-08-19T13:01:05;7.45;;;4.60;;
18274;SDS011;19470;49.322;7.218;2022-08-19T13:03:32;8.05;;;5.35;;
18274;SDS011;19470;49.322;7.218;2022-08-19T13:05:59;6.75;;;4.75;;
18274;SDS011;19470;49.322;7.218;2022-08-19T13:08:26;9.90;;;5.88;;
18274;SDS011;19470;49.322;7.218;2022-08-19T13:10:53;5.22;;;4.75;;
18274;SDS011;19470;49.322;7.218;2022-08-19T13:13:20;6.45;;;5.18;;
18274;SDS011;19470;49.322;7.218;2022-08-19T13:15:47;13.98;;;12.52;;
18274;SDS011;19470;49.322;7.218;2022-08-19T13:18:13;7.22;;;5.18;;
18274;SDS011;19470;49.322;7.218;2022-08-19T13:20:41;10.23;;;7.85;;
18274;SDS011;19470;49.322;7.218;2022-08-19T13:23:07;8.70;;;5.65;;
18274;SDS011;19470;49.322;7.218;2022-08-19T13:25:36;9.32;;;7.28;;
18274;SDS011;19470;49.322;7.218;2022-08-19T13:28:03;10.40;;;6.68;;
18274;SDS011;19470;49.322;7.218;2022-08-19T13:30:31;8.88;;;6.70;;
18274;SDS011;19470;49.322;7.218;2022-08-19T13:33:15;10.32;;;6.80;;
18274;SDS011;19470;49.322;7.218;2022-08-19T13:35:44;8.23;;;6.13;;
18274;SDS011;19470;49.322;7.218;2022-08-19T13:38:13;9.00;;;6.13;;
18274;SDS011;19470;49.322;7.218;2022-08-19T13:40:43;6.57;;;5.70;;
18274;SDS011;19470;49.322;7.218;2022-08-19T13:43:11;7.75;;;6.25;;
18274;SDS011;19470;49.322;7.218;2022-08-19T13:45:38;8.65;;;6.20;;
18274;SDS011;19470;49.322;7.218;2022-08-19T13:48:06;8.18;;;6.47;;
18274;SDS011;19470;49.322;7.218;2022-08-19T13:50:38;11.55;;;7.53;;
18274;SDS011;19470;49.322;7.218;2022-08-19T13:53:07;10.43;;;7.15;;
18274;SDS011;19470;49.322;7.218;2022-08-19T13:55:34;11.90;;;6.68;;
18274;SDS011;19470;49.322;7.218;2022-08-19T13:58:04;7.53;;;6.82;;
18274;SDS011;19470;49.322;7.218;2022-08-19T14:00:31;9.55;;;6.18;;
18274;SDS011;19470;49.322;7.218;2022-08-19T14:02:59;9.55;;;6.63;;
18274;SDS011;19470;49.322;7.218;2022-08-19T14:05:26;10.65;;;6.65;;
18274;SDS011;19470;49.322;7.218;2022-08-19T14:07:54;12.43;;;6.18;;
18274;SDS011;19470;49.322;7.218;2022-08-19T14:10:21;8.70;;;6.38;;
18274;SDS011;19470;49.322;7.218;2022-08-19T14:12:49;8.43;;;6.38;;
18274;SDS011;19470;49.322;7.218;2022-08-19T14:15:19;13.23;;;6.20;;
18274;SDS011;19470;49.322;7.218;2022-08-19T14:17:46;7.93;;;6.05;;
18274;SDS011;19470;49.322;7.218;2022-08-19T14:20:14;6.60;;;5.93;;
18274;SDS011;19470;49.322;7.218;2022-08-19T14:22:41;6.47;;;5.75;;
18274;SDS011;19470;49.322;7.218;2022-08-19T14:25:10;9.13;;;8.23;;
18274;SDS011;19470;49.322;7.218;2022-08-19T14:27:41;8.55;;;7.45;;
18274;SDS011;19470;49.322;7.218;2022-08-19T14:30:08;7.13;;;5.07;;
18274;SDS011;19470;49.322;7.218;2022-08-19T14:32:40;8.57;;;3.78;;
18274;SDS011;19470;49.322;7.218;2022-08-19T14:35:09;5.22;;;4.60;;
18274;SDS011;19470;49.322;7.218;2022-08-19T14:37:37;7.43;;;4.57;;
18274;SDS011;19470;49.322;7.218;2022-08-19T14:40:05;6.55;;;4.40;;